Time;durP1;ratioP1;P1;durP2;ratioP2;P2;SDS_P1;SDS_P2;PMS_P1;PMS_P2;Temp;Humidity;BMP_temperature;BMP_pressure;BME280_temperature;BME280_humidity;BME280_pressure;Samples;Min_cycle;Max_cycle;Signal;HPM_P1;HPM_P2
2022/05/13 00:01:30;;;;;;;2.50;1.87;;;16.80;99.90;;;;;;5096995;28;20531;-53
2022/05/13 00:03:57;;;;;;;2.43;2.20;;;16.80;99.90;;;;;;5098602;28;20513;-56
2022/05/13 00:06:25;;;;;;;2.60;2.17;;;16.80;99.90;;;;;;5099081;28;20483;-60
2022/05/13 00:08:52;;;;;;;4.77;2.13;;;16.90;99.90;;;;;;5098408;28;20429;-54
2022/05/13 00:11:19;;;;;;;2.60;2.40;;;16.90;99.90;;;;;;5099081;28;20545;-58
2022/05/13 00:13:46;;;;;;;2.00;1.90;;;16.70;99.90;;;;;;5098072;28;20597;-59
2022/05/13 00:16:14;;;;;;;4.13;2.43;;;16.70;99.90;;;;;;5096896;28;20436;-53
2022/05/13 00:18:42;;;;;;;3.67;2.50;;;16.60;99.90;;;;;;5111920;28;20706;-59
2022/05/13 00:21:10;;;;;;;4.13;2.97;;;16.60;99.90;;;;;;5117127;28;20504;-57
2022/05/13 00:23:37;;;;;;;2.67;2.47;;;16.40;99.90;;;;;;5117834;28;20438;-54
2022/05/13 00:26:05;;;;;;;2.13;1.93;;;16.30;99.90;;;;;;5117468;28;20440;-55
2022/05/13 00:28:32;;;;;;;4.10;3.67;;;16.20;99.90;;;;;;5117177;28;20694;-57
2022/05/13 00:31:04;;;;;;;2.40;1.93;;;16.10;99.90;;;;;;5117464;28;20485;-53
2022/05/13 00:33:33;;;;;;;3.80;2.85;;;16.00;99.90;;;;;;5117291;28;20433;-55
2022/05/13 00:36:00;;;;;;;2.95;2.60;;;15.90;99.90;;;;;;5117256;28;20205;-55
2022/05/13 00:38:27;;;;;;;4.38;2.85;;;15.80;99.90;;;;;;5117590;28;20212;-51
2022/05/13 00:40:54;;;;;;;3.08;2.10;;;15.70;99.90;;;;;;5117274;28;20244;-58
2022/05/13 00:43:42;;;;;;;2.30;2.10;;;15.70;99.90;;;;;;5117175;28;20503;-55
2022/05/13 00:46:09;;;;;;;1.75;1.63;;;15.60;99.90;;;;;;5117573;28;20194;-54
2022/05/13 00:48:36;;;;;;;4.28;2.60;;;15.60;99.90;;;;;;5116911;28;20274;-54
2022/05/13 00:51:07;;;;;;;4.03;3.50;;;15.50;99.90;;;;;;5117592;28;20225;-57
2022/05/13 00:53:35;;;;;;;8.52;3.47;;;15.50;99.90;;;;;;5116863;28;20551;-55
2022/05/13 00:56:03;;;;;;;2.78;2.58;;;15.20;99.90;;;;;;5117442;28;20283;-55
2022/05/13 00:58:33;;;;;;;4.05;2.13;;;15.20;99.90;;;;;;5117131;28;20206;-59
2022/05/13 01:01:00;;;;;;;2.65;2.05;;;15.10;99.90;;;;;;5117342;28;20236;-58
2022/05/13 01:03:28;;;;;;;3.20;2.45;;;15.20;99.90;;;;;;5117426;28;20206;-58
2022/05/13 01:05:59;;;;;;;2.05;1.85;;;15.20;99.90;;;;;;5117626;28;20208;-56
2022/05/13 01:08:31;;;;;;;6.45;3.42;;;15.20;99.90;;;;;;5117014;28;20211;-57
2022/05/13 01:11:02;;;;;;;5.30;2.10;;;15.10;99.90;;;;;;5116581;28;20765;-52
2022/05/13 01:13:32;;;;;;;3.03;2.75;;;15.10;99.90;;;;;;5115746;28;20193;-56
2022/05/13 01:15:59;;;;;;;3.58;2.35;;;15.00;99.90;;;;;;5116756;28;20292;-55
2022/05/13 01:18:35;;;;;;;1.83;1.73;;;15.10;99.90;;;;;;5116951;28;20202;-55
2022/05/13 01:21:04;;;;;;;3.70;2.50;;;15.20;99.90;;;;;;5120010;28;20225;-57
2022/05/13 01:23:40;;;;;;;2.22;2.03;;;15.20;99.90;;;;;;5106967;28;20290;-55
2022/05/13 01:26:11;;;;;;;2.55;2.35;;;15.20;99.90;;;;;;5100338;28;20202;-55
2022/05/13 01:28:43;;;;;;;2.95;2.75;;;15.20;99.90;;;;;;5100677;28;20205;-56
2022/05/13 01:31:14;;;;;;;3.10;2.38;;;15.10;99.90;;;;;;5099994;28;20233;-56
2022/05/13 01:33:42;;;;;;;3.47;2.35;;;15.20;99.90;;;;;;5100135;28;20206;-54
2022/05/13 01:36:15;;;;;;;2.90;2.50;;;15.30;99.90;;;;;;5100319;28;20208;-54
2022/05/13 01:38:43;;;;;;;6.32;2.70;;;15.40;99.90;;;;;;5100773;28;20214;-52
2022/05/13 01:41:13;;;;;;;4.93;2.70;;;15.50;99.90;;;;;;5100745;28;20223;-56
2022/05/13 01:43:43;;;;;;;4.40;2.67;;;15.50;99.90;;;;;;5100442;28;20203;-54
2022/05/13 01:46:11;;;;;;;4.88;2.58;;;15.40;99.90;;;;;;5100344;28;20203;-56
2022/05/13 01:48:39;;;;;;;3.97;2.40;;;15.50;99.90;;;;;;5099904;28;20274;-57
2022/05/13 01:51:06;;;;;;;7.85;2.05;;;15.50;99.90;;;;;;5100094;28;20223;-58
2022/05/13 01:53:36;;;;;;;2.95;2.50;;;15.40;99.90;;;;;;5099881;28;20212;-56
2022/05/13 01:56:04;;;;;;;5.75;2.45;;;15.40;99.90;;;;;;5100462;28;20195;-53
2022/05/13 01:58:34;;;;;;;3.72;2.28;;;15.40;99.90;;;;;;5100063;28;20194;-55
2022/05/13 02:01:04;;;;;;;4.38;2.97;;;15.30;99.90;;;;;;5099874;28;20221;-54
2022/05/13 02:03:44;;;;;;;3.60;2.20;;;15.20;99.90;;;;;;5097698;28;20267;-57
2022/05/13 02:06:18;;;;;;;2.90;2.70;;;15.00;99.90;;;;;;5112182;28;20496;-53
2022/05/13 02:08:47;;;;;;;3.60;2.83;;;15.00;99.90;;;;;;5120585;28;20200;-55
2022/05/13 02:11:14;;;;;;;3.45;3.08;;;15.00;99.90;;;;;;5120089;28;20217;-58
2022/05/13 02:13:41;;;;;;;3.15;2.75;;;15.00;99.90;;;;;;5120312;28;20201;-55
2022/05/13 02:16:10;;;;;;;3.13;2.83;;;15.10;99.90;;;;;;5119961;28;20290;-54
2022/05/13 02:18:38;;;;;;;4.75;3.35;;;15.00;99.90;;;;;;5120113;28;20265;-52
2022/05/13 02:21:06;;;;;;;13.25;3.90;;;15.00;99.90;;;;;;5119121;28;20556;-54
2022/05/13 02:23:33;;;;;;;3.28;2.97;;;15.00;99.90;;;;;;5119906;28;20282;-53
2022/05/13 02:26:04;;;;;;;3.20;2.90;;;14.90;99.90;;;;;;5119606;28;20201;-56
2022/05/13 02:28:32;;;;;;;3.40;2.47;;;14.80;99.90;;;;;;5119911;28;20277;-57
2022/05/13 02:30:59;;;;;;;3.10;2.80;;;14.80;99.90;;;;;;5119309;28;20496;-53
2022/05/13 02:33:31;;;;;;;3.22;2.92;;;14.70;99.90;;;;;;5119757;28;20235;-51
2022/05/13 02:36:00;;;;;;;5.07;2.22;;;14.70;99.90;;;;;;5120023;28;20211;-55
2022/05/13 02:38:28;;;;;;;9.63;2.65;;;14.70;99.90;;;;;;5119534;28;20205;-51
2022/05/13 02:41:16;;;;;;;3.88;2.45;;;14.70;99.90;;;;;;5119613;28;20580;-57
2022/05/13 02:43:53;;;;;;;8.45;3.53;;;14.70;99.90;;;;;;5119593;28;20202;-55
2022/05/13 02:46:27;;;;;;;3.03;2.75;;;14.60;99.90;;;;;;5119969;28;20201;-55
2022/05/13 02:48:55;;;;;;;6.35;3.05;;;14.60;99.90;;;;;;5119740;28;20257;-57
2022/05/13 02:51:22;;;;;;;2.80;2.08;;;14.60;99.90;;;;;;5119281;28;20224;-55
2022/05/13 02:53:50;;;;;;;2.67;2.35;;;14.50;99.90;;;;;;5118939;28;20201;-52
2022/05/13 02:56:18;;;;;;;2.53;2.33;;;14.50;99.90;;;;;;5119560;28;20229;-53
2022/05/13 02:58:45;;;;;;;5.38;3.30;;;14.50;99.90;;;;;;5119177;28;20460;-52
2022/05/13 03:01:14;;;;;;;4.85;3.03;;;14.50;99.90;;;;;;5119096;28;20249;-52
2022/05/13 03:03:44;;;;;;;5.78;3.28;;;14.50;99.90;;;;;;5119351;27;20205;-56
2022/05/13 03:06:11;;;;;;;8.73;2.78;;;14.50;99.90;;;;;;5119182;28;20272;-56
2022/05/13 03:08:39;;;;;;;3.90;3.38;;;14.50;99.90;;;;;;5119415;28;20246;-58
2022/05/13 03:11:07;;;;;;;5.03;3.47;;;14.50;99.90;;;;;;5119197;28;20445;-56
2022/05/13 03:13:35;;;;;;;3.75;2.88;;;14.50;99.90;;;;;;5119285;28;20203;-56
2022/05/13 03:16:10;;;;;;;5.75;3.50;;;14.60;99.90;;;;;;5118984;28;20277;-55
2022/05/13 03:18:41;;;;;;;9.70;4.00;;;14.60;99.90;;;;;;5119308;28;20205;-56
2022/05/13 03:21:09;;;;;;;4.07;3.22;;;14.60;99.90;;;;;;5118770;28;20393;-56
2022/05/13 03:23:38;;;;;;;3.00;2.70;;;14.60;99.90;;;;;;5118531;28;20257;-55
2022/05/13 03:26:05;;;;;;;3.28;2.63;;;14.60;99.90;;;;;;5118761;28;20213;-54
2022/05/13 03:28:32;;;;;;;4.20;3.25;;;14.70;99.90;;;;;;5118684;28;20200;-56
2022/05/13 03:31:00;;;;;;;3.40;3.10;;;14.70;99.90;;;;;;5118580;28;20226;-56
2022/05/13 03:33:27;;;;;;;4.60;3.17;;;14.70;99.90;;;;;;5118640;28;20282;-57
2022/05/13 03:35:54;;;;;;;4.65;3.40;;;14.80;99.90;;;;;;5118667;28;20366;-56
2022/05/13 03:38:21;;;;;;;3.20;2.90;;;14.70;99.90;;;;;;5118556;28;20205;-54
2022/05/13 03:40:49;;;;;;;2.92;2.63;;;14.60;99.90;;;;;;5118425;28;20579;-54
2022/05/13 03:43:18;;;;;;;5.97;3.75;;;14.70;99.90;;;;;;5117761;28;20586;-55
2022/05/13 03:45:46;;;;;;;3.75;3.42;;;14.80;99.90;;;;;;5119638;28;20215;-56
2022/05/13 03:48:14;;;;;;;6.85;2.80;;;14.90;99.90;;;;;;5125039;28;20254;-55
2022/05/13 03:50:44;;;;;;;6.97;4.72;;;15.00;99.90;;;;;;5122687;28;20229;-58
2022/05/13 03:53:12;;;;;;;4.15;3.75;;;15.20;99.90;;;;;;5125051;28;20277;-58
2022/05/13 03:55:39;;;;;;;8.45;3.90;;;15.30;99.90;;;;;;5127101;28;20212;-56
2022/05/13 03:58:06;;;;;;;11.60;4.15;;;15.40;99.90;;;;;;5126747;28;20206;-57
2022/05/13 04:00:34;;;;;;;3.42;3.22;;;15.50;99.90;;;;;;5116081;28;20501;-56
2022/05/13 04:03:03;;;;;;;5.97;3.17;;;15.50;99.90;;;;;;5106243;28;20457;-54
2022/05/13 04:11:03;;;;;;;3.47;3.15;;;15.80;99.90;;;;;;5090946;28;20244;-56
2022/05/13 04:16:16;;;;;;;5.43;3.10;;;16.00;99.90;;;;;;5097690;28;20203;-56
2022/05/13 04:18:45;;;;;;;4.80;2.63;;;16.20;99.90;;;;;;5097516;28;20223;-55
2022/05/13 04:21:19;;;;;;;5.80;3.85;;;16.20;99.90;;;;;;5105577;28;20893;-55
2022/05/13 04:23:49;;;;;;;5.90;3.03;;;16.30;99.90;;;;;;5097018;28;20470;-58
2022/05/13 04:26:17;;;;;;;6.93;3.93;;;16.60;99.90;;;;;;5097978;28;20444;-57
2022/05/13 04:28:47;;;;;;;8.60;3.43;;;16.60;99.90;;;;;;5097435;28;20444;-58
2022/05/13 04:31:17;;;;;;;6.00;3.57;;;16.60;99.90;;;;;;5108186;28;20456;-56
2022/05/13 04:33:44;;;;;;;4.43;4.03;;;16.40;99.90;;;;;;5118006;28;20787;-54
2022/05/13 04:36:12;;;;;;;8.27;3.73;;;16.50;99.90;;;;;;5119506;28;20735;-58
2022/05/13 04:38:39;;;;;;;4.73;3.63;;;16.70;99.90;;;;;;5113198;28;20483;-56
2022/05/13 04:44:11;;;;;;;6.43;3.20;;;16.70;99.90;;;;;;5054385;28;20434;-56
2022/05/13 04:46:38;;;;;;;4.07;3.67;;;16.80;99.90;;;;;;5072112;28;20451;-59
2022/05/13 04:49:07;;;;;;;5.77;4.03;;;17.00;99.90;;;;;;5079687;28;20451;-55
2022/05/13 04:51:35;;;;;;;8.13;4.97;;;17.10;99.90;;;;;;5094894;28;20445;-56
2022/05/13 04:54:03;;;;;;;7.93;4.07;;;17.20;99.90;;;;;;5096565;28;20602;-55
2022/05/13 04:56:31;;;;;;;7.63;4.33;;;17.20;99.90;;;;;;5096522;28;20417;-58
2022/05/13 04:58:59;;;;;;;7.30;4.40;;;17.10;99.90;;;;;;5096498;28;20641;-56
2022/05/13 05:01:29;;;;;;;10.07;4.50;;;17.10;99.90;;;;;;5091072;28;20626;-58
2022/05/13 05:03:57;;;;;;;5.23;3.57;;;17.10;99.90;;;;;;5096271;28;20454;-55
2022/05/13 05:06:24;;;;;;;7.07;4.57;;;17.40;99.90;;;;;;5095783;28;20519;-55
2022/05/13 05:08:53;;;;;;;8.10;3.80;;;17.40;99.90;;;;;;5094816;28;20504;-59
2022/05/13 05:11:25;;;;;;;4.17;3.77;;;17.40;99.90;;;;;;5094469;28;20537;-57
2022/05/13 05:13:52;;;;;;;8.60;4.03;;;17.40;99.90;;;;;;5093788;28;20408;-58
2022/05/13 05:16:22;;;;;;;11.73;6.30;;;17.40;99.90;;;;;;5094391;28;20761;-57
2022/05/13 05:18:50;;;;;;;4.20;3.50;;;17.40;99.90;;;;;;5095497;28;20438;-55
2022/05/13 05:21:18;;;;;;;6.30;5.10;;;17.50;99.90;;;;;;5095441;28;20432;-56
2022/05/13 05:23:45;;;;;;;10.27;4.33;;;17.40;99.90;;;;;;5096310;28;20855;-57
2022/05/13 05:26:12;;;;;;;5.03;2.93;;;17.50;99.90;;;;;;5096434;28;20787;-57
2022/05/13 05:28:41;;;;;;;6.33;3.60;;;17.80;99.90;;;;;;5096286;28;20658;-55
2022/05/13 05:31:11;;;;;;;6.90;3.70;;;17.90;99.90;;;;;;5103923;28;20640;-54
2022/05/13 05:33:42;;;;;;;8.10;4.20;;;17.80;99.90;;;;;;5110018;28;20416;-57
2022/05/13 05:36:10;;;;;;;4.17;3.80;;;17.80;99.90;;;;;;5110581;28;20412;-56
2022/05/13 05:38:37;;;;;;;5.10;4.20;;;17.90;99.90;;;;;;5109622;28;20446;-56
2022/05/13 05:41:04;;;;;;;7.73;3.90;;;18.10;99.90;;;;;;5116214;28;20718;-57
2022/05/13 05:43:34;;;;;;;4.43;3.50;;;18.50;99.90;;;;;;5105364;28;20489;-57
2022/05/13 05:46:01;;;;;;;6.13;4.13;;;18.90;99.90;;;;;;5113310;28;20482;-57
2022/05/13 05:48:29;;;;;;;5.33;3.73;;;19.30;99.90;;;;;;5117001;28;20483;-55
2022/05/13 05:50:58;;;;;;;5.90;3.47;;;19.40;99.90;;;;;;5117247;28;20459;-53
2022/05/13 05:59:01;;;;;;;10.60;4.87;;;19.60;99.90;;;;;;5096298;28;20442;-54
2022/05/13 06:01:28;;;;;;;7.07;3.20;;;20.00;99.90;;;;;;5095900;28;20500;-54
2022/05/13 06:03:56;;;;;;;7.97;4.10;;;20.30;99.90;;;;;;5103575;28;20865;-52
2022/05/13 06:06:24;;;;;;;5.53;3.23;;;20.30;99.90;;;;;;5118213;28;20433;-54
2022/05/13 06:08:55;;;;;;;14.43;3.50;;;20.50;99.90;;;;;;5119811;28;20431;-56
2022/05/13 06:11:23;;;;;;;4.23;2.70;;;20.70;99.90;;;;;;5120623;28;20493;-54
2022/05/13 06:13:53;;;;;;;4.10;3.13;;;20.90;99.90;;;;;;5120958;28;20664;-59
2022/05/13 06:16:27;;;;;;;5.50;2.80;;;20.90;99.90;;;;;;5121034;28;20658;-57
2022/05/13 06:18:54;;;;;;;7.07;3.30;;;21.30;99.90;;;;;;5121104;28;20968;-56
2022/05/13 06:21:21;;;;;;;6.13;3.20;;;21.50;99.90;;;;;;5112005;28;20468;-55
2022/05/13 06:23:49;;;;;;;2.83;2.63;;;21.60;99.90;;;;;;5105579;28;20521;-54
2022/05/13 06:26:16;;;;;;;4.60;2.83;;;21.80;99.90;;;;;;5108618;28;20456;-54
2022/05/13 06:28:43;;;;;;;3.73;2.60;;;21.90;99.90;;;;;;5111261;28;20505;-55
2022/05/13 06:31:11;;;;;;;2.37;2.27;;;22.20;99.90;;;;;;5114115;28;20465;-52
2022/05/13 06:33:39;;;;;;;5.57;2.90;;;22.70;99.90;;;;;;5104093;28;20678;-57
2022/05/13 06:36:07;;;;;;;17.13;4.17;;;22.80;99.90;;;;;;5101406;28;20687;-56
2022/05/13 06:38:34;;;;;;;7.97;3.07;;;23.20;99.90;;;;;;5079296;28;20453;-53
2022/05/13 06:41:01;;;;;;;5.63;3.47;;;23.60;98.80;;;;;;5119799;28;20525;-54
2022/05/13 06:43:29;;;;;;;6.30;2.50;;;24.90;97.00;;;;;;5118914;28;20480;-53
2022/05/13 06:45:56;;;;;;;15.73;3.87;;;25.50;95.50;;;;;;5119266;28;20462;-56
2022/05/13 06:48:24;;;;;;;6.23;3.00;;;25.00;95.40;;;;;;5119276;28;20446;-56
2022/05/13 06:50:52;;;;;;;8.23;2.40;;;25.10;94.90;;;;;;5118781;28;20458;-54
2022/05/13 06:53:21;;;;;;;2.77;2.40;;;25.40;93.40;;;;;;5118781;28;20466;-52
2022/05/13 06:55:49;;;;;;;3.10;2.60;;;26.10;92.80;;;;;;5119050;28;20502;-54
2022/05/13 06:58:17;;;;;;;15.93;3.20;;;26.30;92.20;;;;;;5118535;28;20438;-56
2022/05/13 07:00:44;;;;;;;3.47;2.53;;;25.80;91.90;;;;;;5118527;28;20501;-56
2022/05/13 07:03:17;;;;;;;4.13;2.47;;;25.60;91.60;;;;;;5118910;28;20480;-61
2022/05/13 07:05:45;;;;;;;5.50;2.73;;;26.60;90.20;;;;;;5118446;28;20535;-55
2022/05/13 07:08:13;;;;;;;3.10;1.93;;;27.60;87.20;;;;;;5119060;28;20510;-55
2022/05/13 07:10:41;;;;;;;2.90;2.17;;;29.50;82.60;;;;;;5118354;28;20799;-57
2022/05/13 07:13:11;;;;;;;3.10;2.60;;;32.10;74.70;;;;;;5119495;28;20616;-55
2022/05/13 07:15:39;;;;;;;6.13;2.70;;;33.00;65.40;;;;;;5119071;28;20462;-56
2022/05/13 07:18:06;;;;;;;4.10;2.50;;;34.10;62.30;;;;;;5118785;28;20472;-54
2022/05/13 07:20:35;;;;;;;3.80;2.70;;;34.40;57.80;;;;;;5119312;28;20433;-57
2022/05/13 07:23:02;;;;;;;5.27;2.03;;;36.00;54.90;;;;;;5119491;28;20629;-57
2022/05/13 07:25:33;;;;;;;2.50;2.20;;;37.30;52.00;;;;;;5119485;28;20807;-56
2022/05/13 07:28:00;;;;;;;4.57;3.33;;;38.30;48.40;;;;;;5119585;28;20758;-56
2022/05/13 07:30:28;;;;;;;2.47;1.90;;;38.10;46.60;;;;;;5118015;28;20703;-54
2022/05/13 07:32:55;;;;;;;2.73;2.27;;;37.50;47.10;;;;;;5117940;28;20529;-55
2022/05/13 07:35:22;;;;;;;3.70;2.70;;;37.90;45.60;;;;;;5118561;28;20662;-55
2022/05/13 07:37:50;;;;;;;7.03;2.60;;;38.20;45.30;;;;;;5117459;28;20434;-58
2022/05/13 07:43:03;;;;;;;7.40;2.70;;;40.00;44.20;;;;;;5118235;28;20465;-57
2022/05/13 07:45:32;;;;;;;4.40;2.17;;;39.70;43.90;;;;;;5118094;28;20430;-55
2022/05/13 07:48:01;;;;;;;2.40;1.43;;;37.90;45.00;;;;;;5118171;28;20430;-56
2022/05/13 07:50:30;;;;;;;4.17;1.60;;;38.50;43.30;;;;;;5117815;27;20434;-55
2022/05/13 07:52:57;;;;;;;1.53;1.27;;;39.50;41.00;;;;;;5116429;28;20461;-57
2022/05/13 07:55:24;;;;;;;1.73;1.40;;;39.80;39.50;;;;;;5117677;28;20438;-55
2022/05/13 07:57:51;;;;;;;2.67;1.57;;;40.80;39.20;;;;;;5116727;28;20660;-55
2022/05/13 08:00:32;;;;;;;1.60;1.50;;;40.40;39.30;;;;;;5117274;28;20497;-57
2022/05/13 08:03:08;;;;;;;6.40;1.93;;;40.60;38.80;;;;;;5117936;28;20478;-55
2022/05/13 08:05:44;;;;;;;1.77;1.53;;;41.30;37.80;;;;;;5117191;28;20430;-54
2022/05/13 08:08:20;;;;;;;3.37;1.60;;;42.20;37.40;;;;;;5105661;28;20463;-56
2022/05/13 08:10:51;;;;;;;3.90;1.20;;;40.00;36.30;;;;;;5108187;28;20430;-54
2022/05/13 08:13:20;;;;;;;3.00;1.70;;;39.80;37.20;;;;;;5116632;28;20513;-52
2022/05/13 08:15:50;;;;;;;3.27;1.60;;;39.70;38.70;;;;;;5116797;28;20430;-57
2022/05/13 08:18:19;;;;;;;2.13;2.03;;;40.10;38.10;;;;;;5118048;28;20429;-55
2022/05/13 08:20:47;;;;;;;1.87;1.30;;;40.20;38.20;;;;;;5117046;28;20469;-56
2022/05/13 08:23:14;;;;;;;1.50;1.40;;;41.00;37.70;;;;;;5117639;28;20736;-55
2022/05/13 08:25:41;;;;;;;1.87;1.50;;;41.40;37.30;;;;;;5118376;28;20493;-58
2022/05/13 08:28:09;;;;;;;4.60;1.90;;;40.60;37.20;;;;;;5117162;28;20442;-54
2022/05/13 08:30:37;;;;;;;1.73;1.30;;;41.40;37.30;;;;;;5117454;28;20434;-56
2022/05/13 08:33:09;;;;;;;1.77;1.10;;;40.70;36.50;;;;;;5117422;28;20820;-56
2022/05/13 08:35:42;;;;;;;5.77;1.93;;;39.30;38.00;;;;;;5117080;28;20432;-59
2022/05/13 08:38:10;;;;;;;1.93;1.73;;;39.00;38.40;;;;;;5117086;28;20788;-54
2022/05/13 08:40:49;;;;;;;1.20;1.10;;;39.40;38.30;;;;;;5116855;28;20501;-56
2022/05/13 08:43:27;;;;;;;5.83;2.03;;;40.70;38.10;;;;;;5116295;28;20627;-56
2022/05/13 08:46:17;;;;;;;2.17;1.93;;;41.70;37.40;;;;;;5117191;28;20593;-54
2022/05/13 08:49:05;;;;;;;1.60;1.40;;;42.10;36.20;;;;;;5117074;28;20508;-53
2022/05/13 08:53:06;;;;;;;1.87;1.77;;;42.10;36.50;;;;;;5116927;28;20445;-56
2022/05/13 08:55:01;;;;;;;2.20;1.40;;;40.80;37.50;;;;;;5115973;28;20765;-53
2022/05/13 08:57:33;;;;;;;3.97;1.50;;;40.30;37.60;;;;;;5116986;28;20441;-55
2022/05/13 09:00:08;;;;;;;2.30;1.47;;;41.90;37.70;;;;;;5116861;28;20458;-56
2022/05/13 09:02:43;;;;;;;2.30;1.43;;;42.40;36.30;;;;;;5116690;28;20476;-56
2022/05/13 09:05:27;;;;;;;1.47;1.37;;;42.40;36.70;;;;;;5116491;28;20497;-55
2022/05/13 09:08:00;;;;;;;1.83;1.43;;;42.50;36.40;;;;;;5116589;28;20908;-56
2022/05/13 09:10:28;;;;;;;4.57;1.40;;;42.00;36.60;;;;;;5116657;28;20833;-51
2022/05/13 09:13:20;;;;;;;2.90;1.77;;;40.00;36.80;;;;;;5116682;28;20624;-57
2022/05/13 09:15:52;;;;;;;1.70;1.10;;;37.30;39.60;;;;;;5116770;28;20760;-56
2022/05/13 09:18:57;;;;;;;3.77;2.03;;;37.00;40.10;;;;;;5117280;28;20480;-57
2022/05/13 09:21:24;;;;;;;1.47;1.37;;;37.30;40.00;;;;;;5110182;28;20761;-56
2022/05/13 09:23:51;;;;;;;1.40;1.30;;;39.00;38.60;;;;;;5116867;28;20676;-58
2022/05/13 09:26:22;;;;;;;4.13;1.70;;;40.00;37.80;;;;;;5116897;28;20670;-58
2022/05/13 09:29:03;;;;;;;1.53;1.43;;;38.70;39.90;;;;;;5116977;28;20757;-55
2022/05/13 09:31:37;;;;;;;3.67;1.60;;;37.50;40.00;;;;;;5116874;28;20513;-54
2022/05/13 09:34:16;;;;;;;5.50;1.83;;;36.50;42.30;;;;;;5117039;28;20509;-53
2022/05/13 09:36:44;;;;;;;1.50;1.40;;;34.60;43.20;;;;;;5116660;28;20502;-54
2022/05/13 09:39:25;;;;;;;2.10;1.43;;;33.70;44.60;;;;;;5117081;28;20434;-54
2022/05/13 09:41:53;;;;;;;2.50;1.40;;;31.60;44.40;;;;;;5119665;28;20743;-57
2022/05/13 09:44:26;;;;;;;3.47;1.70;;;30.80;46.20;;;;;;5119819;28;20472;-54
2022/05/13 09:47:13;;;;;;;3.83;1.60;;;29.80;48.10;;;;;;5120379;28;20440;-54
2022/05/13 09:50:01;;;;;;;2.60;1.43;;;29.60;50.10;;;;;;5120119;28;20482;-56
2022/05/13 09:52:34;;;;;;;8.20;2.80;;;29.30;49.60;;;;;;5120399;28;20485;-58
2022/05/13 09:55:34;;;;;;;7.60;1.60;;;29.50;50.10;;;;;;5120803;28;20461;-54
2022/05/13 09:58:08;;;;;;;3.53;2.20;;;29.80;50.20;;;;;;5121250;28;20459;-56
2022/05/13 10:00:39;;;;;;;5.17;1.47;;;29.90;50.70;;;;;;5119874;28;20536;-53
2022/05/13 10:03:29;;;;;;;2.37;2.00;;;29.70;49.90;;;;;;5120023;28;20880;-56
2022/05/13 10:06:09;;;;;;;1.83;1.67;;;29.60;50.60;;;;;;5120026;28;20436;-53
2022/05/13 10:08:47;;;;;;;1.27;1.17;;;29.20;50.50;;;;;;5121092;28;20493;-55
2022/05/13 10:14:32;;;;;;;4.63;2.30;;;28.60;52.90;;;;;;5120153;28;20458;-50
2022/05/13 10:17:14;;;;;;;1.73;1.63;;;28.50;52.40;;;;;;5119802;28;20499;-54
2022/05/13 10:19:45;;;;;;;5.63;1.40;;;28.20;52.60;;;;;;5119690;28;20421;-56
2022/05/13 10:22:21;;;;;;;1.67;1.57;;;28.00;53.30;;;;;;5119780;28;20457;-51
2022/05/13 10:25:06;;;;;;;3.87;2.07;;;28.30;52.80;;;;;;5119886;28;20676;-51
2022/05/13 10:27:39;;;;;;;12.90;2.27;;;28.60;53.20;;;;;;5119438;28;20434;-57
2022/05/13 10:30:21;;;;;;;2.33;2.13;;;28.90;53.00;;;;;;5119762;28;20502;-55
2022/05/13 10:33:13;;;;;;;3.00;1.80;;;28.80;53.30;;;;;;5119515;28;20456;-55
2022/05/13 10:36:00;;;;;;;2.07;1.70;;;29.00;53.00;;;;;;5119958;28;20434;-53
2022/05/13 10:38:41;;;;;;;1.67;1.47;;;29.30;52.00;;;;;;5119310;28;20423;-53
2022/05/13 10:41:36;;;;;;;1.77;1.63;;;29.40;52.20;;;;;;5119457;28;20458;-55
2022/05/13 10:44:28;;;;;;;3.10;1.60;;;29.00;53.30;;;;;;5099761;28;20828;-53
2022/05/13 10:46:59;;;;;;;2.13;1.50;;;28.80;53.10;;;;;;5119362;28;20807;-55
2022/05/13 10:49:37;;;;;;;6.60;1.83;;;28.50;52.50;;;;;;5119293;28;20472;-57
2022/05/13 10:52:26;;;;;;;2.50;1.80;;;28.20;53.30;;;;;;5118735;28;20445;-54
2022/05/13 10:55:06;;;;;;;3.73;1.70;;;28.40;54.20;;;;;;5118878;28;20440;-54
2022/05/13 10:57:40;;;;;;;5.47;2.37;;;28.90;52.70;;;;;;5119649;28;20421;-52
2022/05/13 11:00:17;;;;;;;1.93;1.83;;;29.20;52.70;;;;;;5119067;28;20744;-55
2022/05/13 11:03:21;;;;;;;1.70;1.30;;;29.50;53.00;;;;;;5119568;28;20856;-52
2022/05/13 11:06:30;;;;;;;2.37;1.57;;;29.70;53.30;;;;;;5118805;28;20767;-53
2022/05/13 11:09:34;;;;;;;10.10;2.47;;;29.30;53.10;;;;;;5119039;28;20504;-53
2022/05/13 11:12:16;;;;;;;1.97;1.70;;;29.10;53.50;;;;;;5117644;28;20747;-56
2022/05/13 11:15:09;;;;;;;3.10;2.37;;;29.30;53.40;;;;;;5117921;28;20520;-53
2022/05/13 11:17:58;;;;;;;4.33;2.07;;;29.70;52.10;;;;;;5113359;28;20442;-54
2022/05/13 11:20:33;;;;;;;3.07;2.50;;;29.80;52.40;;;;;;5118883;28;20430;-56
2022/05/13 11:23:24;;;;;;;3.10;1.80;;;29.40;53.00;;;;;;5118390;28;20445;-54
2022/05/13 11:26:16;;;;;;;1.70;1.60;;;28.70;53.70;;;;;;5118571;28;20448;-53
2022/05/13 11:28:46;;;;;;;2.27;2.07;;;28.60;53.60;;;;;;5118817;28;20438;-54
2022/05/13 11:31:41;;;;;;;5.63;1.70;;;28.00;54.80;;;;;;5119083;28;20788;-54
2022/05/13 11:34:19;;;;;;;2.23;2.03;;;27.90;54.90;;;;;;5119180;28;21009;-54
2022/05/13 11:37:05;;;;;;;2.17;1.50;;;27.50;56.80;;;;;;5119221;28;20504;-57
2022/05/13 11:40:10;;;;;;;6.37;1.80;;;27.10;57.50;;;;;;5118883;28;20441;-56
2022/05/13 11:45:44;;;;;;;3.83;2.00;;;27.70;56.70;;;;;;5118511;28;20468;-51
2022/05/13 11:48:23;;;;;;;1.33;1.23;;;27.80;57.10;;;;;;5118230;28;20432;-53
2022/05/13 11:50:51;;;;;;;3.40;1.80;;;27.90;56.90;;;;;;5117985;28;20429;-57
2022/05/13 11:53:48;;;;;;;4.30;1.77;;;27.80;55.40;;;;;;5119784;28;20444;-62
2022/05/13 11:56:18;;;;;;;2.47;1.77;;;27.80;56.00;;;;;;5110566;28;20500;-54
2022/05/13 11:58:50;;;;;;;1.93;1.70;;;27.80;56.70;;;;;;5121376;28;20429;-52
2022/05/13 12:01:43;;;;;;;10.27;2.60;;;27.90;58.30;;;;;;5119796;28;20454;-54
2022/05/13 12:04:14;;;;;;;2.03;1.60;;;28.20;57.20;;;;;;5117297;28;20872;-57
2022/05/13 12:07:23;;;;;;;3.37;2.30;;;28.10;57.50;;;;;;5118275;28;20466;-58
2022/05/13 12:09:53;;;;;;;2.87;1.83;;;27.90;57.80;;;;;;5105147;28;20445;-57
2022/05/13 12:12:38;;;;;;;4.93;2.30;;;27.60;58.20;;;;;;5120150;28;20456;-57
2022/05/13 12:15:18;;;;;;;2.00;1.90;;;27.30;58.60;;;;;;5121202;28;20437;-57
2022/05/13 12:17:51;;;;;;;1.80;1.70;;;27.10;58.90;;;;;;5120845;28;20440;-52
2022/05/13 12:20:21;;;;;;;3.53;2.77;;;26.80;59.90;;;;;;5120729;28;20857;-56
2022/05/13 12:23:02;;;;;;;4.50;1.90;;;26.60;61.00;;;;;;5118074;28;20471;-56
2022/05/13 12:25:35;;;;;;;1.50;1.40;;;26.70;61.50;;;;;;5118003;28;20906;-54
2022/05/13 12:28:11;;;;;;;2.67;2.33;;;27.00;60.50;;;;;;5117791;28;20512;-56
2022/05/13 12:30:41;;;;;;;3.57;2.40;;;27.20;60.40;;;;;;5117428;28;20446;-57
2022/05/13 12:33:20;;;;;;;3.23;2.30;;;26.80;62.10;;;;;;5117532;28;20660;-54
2022/05/13 12:39:08;;;;;;;1.73;1.63;;;26.40;61.80;;;;;;5119326;28;20501;-57
2022/05/13 12:41:44;;;;;;;10.03;2.70;;;26.00;62.90;;;;;;5122371;28;20462;-54
2022/05/13 12:44:16;;;;;;;4.23;2.47;;;26.10;64.30;;;;;;5116753;28;20709;-54
2022/05/13 12:46:47;;;;;;;3.10;2.30;;;26.20;63.00;;;;;;5118238;28;20431;-57
2022/05/13 12:49:48;;;;;;;3.83;1.83;;;26.20;63.40;;;;;;5117618;28;20435;-54
2022/05/13 12:52:32;;;;;;;2.27;1.87;;;26.40;62.70;;;;;;5117450;28;20534;-58
2022/05/13 12:55:12;;;;;;;2.90;2.60;;;26.40;64.40;;;;;;5118114;28;20460;-53
2022/05/13 12:57:51;;;;;;;2.40;2.20;;;26.30;63.30;;;;;;5117877;28;20464;-56
2022/05/13 13:00:33;;;;;;;4.27;1.73;;;26.30;63.40;;;;;;5116548;28;20843;-55
2022/05/13 13:03:06;;;;;;;2.13;1.93;;;26.50;63.10;;;;;;5117222;28;20469;-54
2022/05/13 13:05:35;;;;;;;3.27;2.10;;;26.30;62.40;;;;;;5117230;28;20707;-58
2022/05/13 13:08:17;;;;;;;2.20;2.07;;;26.00;63.60;;;;;;5117502;28;20427;-56
2022/05/13 13:11:03;;;;;;;1.97;1.87;;;25.90;65.00;;;;;;5117256;28;20441;-55
2022/05/13 13:13:36;;;;;;;1.87;1.77;;;25.70;64.60;;;;;;5117436;28;20411;-57
2022/05/13 13:16:19;;;;;;;2.00;1.80;;;25.40;65.10;;;;;;5123425;28;20438;-53
2022/05/13 13:19:06;;;;;;;5.97;1.93;;;25.10;66.30;;;;;;5124810;28;20470;-56
2022/05/13 13:21:33;;;;;;;3.43;2.53;;;24.80;67.10;;;;;;5103232;28;20532;-57
2022/05/13 13:24:00;;;;;;;22.20;2.27;;;24.80;66.20;;;;;;5096926;28;20445;-53
2022/05/13 13:26:28;;;;;;;4.50;2.23;;;25.00;65.70;;;;;;5096711;28;20946;-55
2022/05/13 13:28:56;;;;;;;1.47;1.37;;;25.10;65.30;;;;;;5099269;28;20623;-57
2022/05/13 13:31:26;;;;;;;5.87;2.03;;;25.10;63.60;;;;;;5093264;28;20438;-53
2022/05/13 13:33:55;;;;;;;6.27;1.97;;;25.20;64.20;;;;;;5113542;28;20425;-53
2022/05/13 13:36:29;;;;;;;4.53;2.20;;;25.00;64.30;;;;;;5095456;28;20463;-55
2022/05/13 13:39:17;;;;;;;15.63;2.60;;;25.00;63.50;;;;;;5112012;27;20535;-53
2022/05/13 13:41:56;;;;;;;6.40;2.00;;;25.00;63.70;;;;;;5103255;28;20449;-53
2022/05/13 13:44:26;;;;;;;2.47;2.27;;;25.30;62.70;;;;;;5102147;28;20974;-56